Lake Natoma, California
Current Conditions -  °F | °C
As of 6:46 PM on Wednesday 22 Oct 2014 (Local Time) from KMHR Reporting Station
Scattered Clouds Scattered Clouds  
Wind Chill: 66°   Ceiling: Unl
Heat Index: 66°   Visibility: 10mi
Dew Point: 41°   Wind: 6mph
Humidity: 40%   Direction: 190°S
Pressure: 30"   Gusts: NA
Location:  38.6648°N, 121.141°W
Report Text: KMHR 230146Z 19005KT 10SM SCT150 19/05 A3000
Loading
Personal Weather Stations






























Interactive Weather Map
Tropical Storm Tracking
New forecast layout! Learn more

10-Day Weather Forecast

Advertisements
Track Severe Weather on mobile